Time;durP1;ratioP1;P1;durP2;ratioP2;P2;SDS_P1;SDS_P2;PMS_P1;PMS_P2;Temp;Humidity;BMP_temperature;BMP_pressure;BME280_temperature;BME280_humidity;BME280_pressure;Samples;Min_cycle;Max_cycle;Signal;HPM_P1;HPM_P2
2023/12/25 00:01:13;;;;;;;4.57;3.03;;;5.10;61.10;;;;;;5125100;27;20034;-84
2023/12/25 00:03:39;;;;;;;4.13;3.20;;;5.20;61.20;;;;;;5137968;27;20027;-84
2023/12/25 00:06:05;;;;;;;3.85;3.45;;;5.10;61.20;;;;;;5136599;27;20031;-84
2023/12/25 00:08:30;;;;;;;4.40;3.30;;;5.10;61.20;;;;;;5139056;27;20199;-83
2023/12/25 00:10:56;;;;;;;4.57;3.55;;;5.20;61.20;;;;;;5137050;27;20042;-82
2023/12/25 00:13:22;;;;;;;3.85;2.88;;;5.10;61.10;;;;;;5119716;27;20397;-85
2023/12/25 00:15:48;;;;;;;4.45;3.25;;;5.10;61.20;;;;;;5109303;28;20114;-82
2023/12/25 00:18:14;;;;;;;4.82;3.30;;;5.10;61.10;;;;;;5115804;28;20154;-82
2023/12/25 00:20:41;;;;;;;3.40;3.10;;;5.10;61.10;;;;;;5105903;28;20032;-86
2023/12/25 00:23:07;;;;;;;3.97;3.30;;;5.10;61.10;;;;;;5131203;27;20020;-85
2023/12/25 00:25:33;;;;;;;3.63;3.13;;;5.10;61.10;;;;;;5118370;27;20388;-85
2023/12/25 00:27:58;;;;;;;3.97;3.17;;;5.10;61.10;;;;;;5119786;27;20094;-84
2023/12/25 00:30:24;;;;;;;4.15;3.00;;;5.00;61.10;;;;;;5114004;27;20102;-84
2023/12/25 00:32:50;;;;;;;4.10;3.40;;;5.00;61.10;;;;;;5110528;27;20058;-85
2023/12/25 00:35:16;;;;;;;3.70;3.10;;;5.00;61.20;;;;;;5120601;27;20024;-83
2023/12/25 00:37:41;;;;;;;4.57;3.20;;;5.00;61.20;;;;;;5119863;27;20071;-83
2023/12/25 00:40:08;;;;;;;3.80;3.00;;;4.90;61.10;;;;;;5135116;27;20027;-84
2023/12/25 00:42:34;;;;;;;3.67;2.97;;;4.90;61.20;;;;;;5118265;27;20046;-84
2023/12/25 00:44:59;;;;;;;4.70;3.30;;;4.90;61.30;;;;;;5125214;27;20032;-83
2023/12/25 00:47:25;;;;;;;3.95;3.13;;;4.90;61.20;;;;;;5124272;27;20031;-83
2023/12/25 00:49:51;;;;;;;3.40;3.05;;;4.90;61.20;;;;;;5117926;27;20039;-84
2023/12/25 00:52:17;;;;;;;3.90;3.22;;;4.90;61.20;;;;;;5107114;27;20031;-84
2023/12/25 00:54:46;;;;;;;5.35;3.50;;;4.90;61.20;;;;;;5117977;27;20027;-84
2023/12/25 00:57:12;;;;;;;4.72;3.22;;;4.90;61.10;;;;;;5133933;27;20394;-84
2023/12/25 00:59:38;;;;;;;4.43;3.67;;;5.00;61.10;;;;;;5113964;27;20051;-83
2023/12/25 01:02:10;;;;;;;4.35;3.70;;;5.00;61.10;;;;;;5109457;27;20088;-84
2023/12/25 01:04:59;;;;;;;4.43;3.75;;;4.90;61.00;;;;;;5136081;27;20036;-84
2023/12/25 01:07:25;;;;;;;5.00;3.80;;;4.90;61.00;;;;;;5117973;27;20023;-84
2023/12/25 01:09:51;;;;;;;5.57;4.22;;;4.80;61.60;;;;;;5118948;27;20106;-83
2023/12/25 01:12:17;;;;;;;4.32;3.70;;;4.80;61.10;;;;;;5119671;27;20054;-84
2023/12/25 01:14:44;;;;;;;5.82;3.70;;;4.70;61.10;;;;;;5119229;27;20023;-85
2023/12/25 01:17:10;;;;;;;4.60;3.33;;;4.80;61.20;;;;;;5112899;27;20522;-83
2023/12/25 01:19:36;;;;;;;5.57;3.80;;;4.70;61.10;;;;;;5124093;27;20079;-84
2023/12/25 01:22:02;;;;;;;3.50;3.20;;;4.80;61.10;;;;;;5136242;27;20114;-83
2023/12/25 01:24:27;;;;;;;4.47;3.72;;;4.80;61.10;;;;;;5136436;27;20066;-83
2023/12/25 01:26:53;;;;;;;4.43;3.50;;;4.80;61.10;;;;;;5130867;27;20023;-84
2023/12/25 01:29:22;;;;;;;4.35;3.40;;;4.90;61.10;;;;;;5135990;27;20434;-83
2023/12/25 01:31:47;;;;;;;5.55;4.03;;;4.90;61.00;;;;;;5099971;27;20024;-84
2023/12/25 01:34:13;;;;;;;4.50;3.70;;;4.90;61.00;;;;;;5101513;27;20038;-84
2023/12/25 01:36:40;;;;;;;3.95;3.47;;;4.80;60.90;;;;;;5113728;27;20114;-85
2023/12/25 01:39:06;;;;;;;5.03;3.65;;;4.80;61.00;;;;;;5126622;27;20110;-84
2023/12/25 01:41:31;;;;;;;4.22;3.50;;;4.80;61.00;;;;;;5110777;28;20146;-82
2023/12/25 01:43:57;;;;;;;4.55;3.20;;;4.80;61.10;;;;;;5127792;27;20106;-85
2023/12/25 01:46:24;;;;;;;3.97;3.30;;;4.70;61.10;;;;;;5112910;27;20027;-85
2023/12/25 01:48:53;;;;;;;5.97;3.70;;;4.70;61.10;;;;;;5110103;27;20015;-85
2023/12/25 01:51:22;;;;;;;4.85;3.58;;;4.70;61.10;;;;;;5111209;28;20020;-83
2023/12/25 01:53:49;;;;;;;4.75;3.72;;;4.70;61.10;;;;;;5107875;27;20027;-83
2023/12/25 01:56:16;;;;;;;4.40;3.55;;;4.70;61.20;;;;;;5114885;27;20035;-83
2023/12/25 01:58:42;;;;;;;4.70;3.58;;;4.70;61.20;;;;;;5107019;28;20062;-84
2023/12/25 02:01:08;;;;;;;4.43;3.70;;;4.70;61.20;;;;;;5097997;27;20039;-85
2023/12/25 02:03:34;;;;;;;4.75;3.72;;;4.60;61.20;;;;;;5115612;28;20030;-83
2023/12/25 02:06:00;;;;;;;3.92;3.47;;;4.60;61.20;;;;;;5101773;27;20760;-85
2023/12/25 02:08:27;;;;;;;4.10;3.35;;;4.60;61.20;;;;;;5136012;27;20067;-85
2023/12/25 02:10:53;;;;;;;3.83;3.30;;;4.60;61.20;;;;;;5116467;27;20088;-84
2023/12/25 02:13:19;;;;;;;5.60;3.70;;;4.60;61.30;;;;;;5135437;27;20031;-83
2023/12/25 02:15:46;;;;;;;4.40;3.35;;;4.70;61.30;;;;;;5115280;27;20036;-85
2023/12/25 02:18:12;;;;;;;4.18;3.55;;;4.60;61.20;;;;;;5127584;27;20023;-84
2023/12/25 02:20:38;;;;;;;3.92;3.00;;;4.60;61.20;;;;;;5115721;27;20048;-84
2023/12/25 02:23:08;;;;;;;3.80;3.13;;;4.60;61.20;;;;;;5114063;27;20377;-84
2023/12/25 02:25:40;;;;;;;4.00;3.58;;;4.70;61.30;;;;;;5114537;27;20028;-83
2023/12/25 02:28:06;;;;;;;4.70;3.75;;;4.70;61.20;;;;;;5099228;28;20023;-83
2023/12/25 02:30:32;;;;;;;3.50;3.20;;;4.70;61.10;;;;;;5096612;28;20430;-84
2023/12/25 02:33:04;;;;;;;4.15;3.30;;;4.70;61.20;;;;;;5116447;27;20531;-84
2023/12/25 02:35:30;;;;;;;4.03;3.22;;;4.80;61.20;;;;;;5129320;27;20042;-83
2023/12/25 02:37:56;;;;;;;4.35;3.28;;;4.80;61.10;;;;;;5119156;27;20032;-83
2023/12/25 02:40:22;;;;;;;3.38;3.08;;;4.80;61.00;;;;;;5123788;27;20068;-84
2023/12/25 02:42:48;;;;;;;4.18;3.40;;;4.90;61.00;;;;;;5122975;28;20086;-85
2023/12/25 02:45:14;;;;;;;4.60;3.30;;;4.90;60.90;;;;;;5111626;28;20030;-85
2023/12/25 02:47:40;;;;;;;3.88;3.17;;;4.90;60.90;;;;;;5123562;27;20423;-84
2023/12/25 02:50:06;;;;;;;3.42;3.00;;;5.00;60.90;;;;;;5132755;27;20032;-85
2023/12/25 02:52:32;;;;;;;4.32;3.25;;;5.00;60.90;;;;;;5100230;27;20035;-83
2023/12/25 02:54:58;;;;;;;3.97;3.17;;;5.00;60.80;;;;;;5107694;28;20031;-83
2023/12/25 02:57:24;;;;;;;4.10;3.20;;;5.00;60.80;;;;;;5125213;28;20538;-84
2023/12/25 02:59:50;;;;;;;4.00;3.35;;;5.00;60.80;;;;;;5110691;28;20107;-82
2023/12/25 03:02:15;;;;;;;3.53;3.13;;;5.00;60.70;;;;;;5130399;28;20121;-84
2023/12/25 03:04:41;;;;;;;3.72;3.33;;;5.00;60.70;;;;;;5101652;28;20416;-85
2023/12/25 03:07:07;;;;;;;5.05;3.40;;;5.10;60.70;;;;;;5101484;28;20434;-84
2023/12/25 03:09:33;;;;;;;3.92;3.30;;;5.10;60.70;;;;;;5117444;28;20046;-84
2023/12/25 03:11:58;;;;;;;3.28;2.95;;;5.10;60.70;;;;;;5114996;28;20048;-83
2023/12/25 03:14:24;;;;;;;3.38;3.00;;;5.10;61.30;;;;;;5099056;28;20581;-83
2023/12/25 03:16:50;;;;;;;3.72;3.20;;;5.10;60.70;;;;;;5117795;28;20102;-85
2023/12/25 03:19:16;;;;;;;6.13;4.00;;;5.10;60.70;;;;;;5098404;28;20107;-85
2023/12/25 03:21:41;;;;;;;3.72;3.00;;;5.10;60.60;;;;;;5114443;28;20047;-83
2023/12/25 03:24:07;;;;;;;3.58;3.00;;;5.10;60.60;;;;;;5115214;28;20042;-83
2023/12/25 03:26:33;;;;;;;3.47;3.08;;;5.10;60.60;;;;;;5115368;28;20023;-84
2023/12/25 03:28:59;;;;;;;4.45;3.35;;;5.10;60.60;;;;;;5112755;28;20035;-85
2023/12/25 03:31:25;;;;;;;3.95;3.15;;;5.10;60.60;;;;;;5113600;28;20032;-84
2023/12/25 03:33:51;;;;;;;3.00;2.75;;;5.10;60.70;;;;;;5116348;27;20023;-86
2023/12/25 03:36:16;;;;;;;3.50;3.20;;;5.10;60.70;;;;;;5113459;28;20359;-85
2023/12/25 03:38:42;;;;;;;4.40;3.17;;;5.10;60.70;;;;;;5096047;28;20027;-85
2023/12/25 03:41:09;;;;;;;3.88;3.25;;;5.10;60.80;;;;;;5113439;28;20030;-84
2023/12/25 03:43:36;;;;;;;3.35;3.05;;;5.10;60.80;;;;;;5102433;28;20550;-86
2023/12/25 03:46:02;;;;;;;4.05;3.28;;;5.10;60.80;;;;;;5117764;28;20027;-85
2023/12/25 03:48:27;;;;;;;4.18;3.00;;;5.20;60.90;;;;;;5115812;28;20495;-84
2023/12/25 03:50:54;;;;;;;4.47;3.50;;;5.20;61.00;;;;;;5122723;28;20024;-83
2023/12/25 03:53:20;;;;;;;3.38;3.08;;;5.10;61.00;;;;;;5101956;28;20027;-83
2023/12/25 03:55:46;;;;;;;3.60;3.17;;;5.10;61.10;;;;;;5101431;28;20072;-84
2023/12/25 03:58:11;;;;;;;4.03;3.22;;;5.10;61.70;;;;;;5121011;27;20389;-84
2023/12/25 04:00:38;;;;;;;4.53;3.53;;;5.20;61.20;;;;;;5115959;27;20459;-85
2023/12/25 04:03:04;;;;;;;4.38;3.47;;;5.20;61.20;;;;;;5133244;27;20031;-84
2023/12/25 04:05:31;;;;;;;3.45;3.10;;;5.10;61.20;;;;;;5103038;28;20024;-84
2023/12/25 04:07:56;;;;;;;4.03;3.38;;;5.20;61.20;;;;;;5117525;28;20118;-84
2023/12/25 04:10:22;;;;;;;4.00;3.20;;;5.20;61.30;;;;;;5098929;28;20449;-84
2023/12/25 04:12:48;;;;;;;3.30;3.00;;;5.10;61.30;;;;;;5118791;27;20035;-84
2023/12/25 04:15:14;;;;;;;4.72;3.13;;;5.10;61.40;;;;;;5129440;27;20069;-87
2023/12/25 04:17:39;;;;;;;4.38;3.30;;;5.10;61.40;;;;;;5122941;27;20027;-86
2023/12/25 04:20:06;;;;;;;3.60;3.13;;;5.10;61.50;;;;;;5106765;27;20027;-84
2023/12/25 04:22:35;;;;;;;3.92;3.25;;;5.10;61.50;;;;;;5119468;27;20397;-86
2023/12/25 04:25:00;;;;;;;4.20;3.33;;;5.10;61.60;;;;;;5111831;28;20600;-86
2023/12/25 04:27:26;;;;;;;4.60;3.10;;;5.10;61.60;;;;;;5120951;27;20044;-86
2023/12/25 04:29:52;;;;;;;4.50;3.47;;;5.10;61.70;;;;;;5113228;27;20027;-84
2023/12/25 04:32:18;;;;;;;3.63;2.83;;;5.10;61.70;;;;;;5119614;27;20084;-85
2023/12/25 04:34:44;;;;;;;3.50;3.20;;;5.10;61.80;;;;;;5118597;27;20019;-85
2023/12/25 04:37:10;;;;;;;4.75;3.20;;;5.10;61.90;;;;;;5109106;28;20362;-84
2023/12/25 04:39:35;;;;;;;3.92;3.45;;;5.10;61.90;;;;;;5099817;28;20422;-84
2023/12/25 04:42:02;;;;;;;3.67;3.05;;;5.10;61.90;;;;;;5121439;27;20043;-84
2023/12/25 04:44:28;;;;;;;3.63;3.10;;;5.10;61.90;;;;;;5125969;27;20480;-83
2023/12/25 04:46:53;;;;;;;3.22;2.83;;;5.10;62.00;;;;;;5141348;27;20024;-85
2023/12/25 04:49:19;;;;;;;3.80;3.15;;;5.10;62.00;;;;;;5130923;27;20031;-84
2023/12/25 04:51:45;;;;;;;3.70;3.28;;;5.10;62.10;;;;;;5141344;27;20384;-86
2023/12/25 04:54:11;;;;;;;3.97;2.92;;;5.10;62.10;;;;;;5143491;27;20251;-85
2023/12/25 04:56:36;;;;;;;3.88;3.00;;;5.10;62.20;;;;;;5119234;28;20028;-84
2023/12/25 04:59:02;;;;;;;4.10;3.05;;;5.10;62.30;;;;;;5128266;27;20046;-86
2023/12/25 05:01:28;;;;;;;3.60;2.92;;;5.10;62.40;;;;;;5113612;27;20066;-83
2023/12/25 05:03:54;;;;;;;3.30;3.00;;;5.00;62.30;;;;;;5128216;27;20075;-85
2023/12/25 05:06:19;;;;;;;3.10;2.80;;;5.00;63.10;;;;;;5125660;27;20058;-84
2023/12/25 05:08:45;;;;;;;3.30;2.83;;;5.00;62.50;;;;;;5103501;27;20038;-84
2023/12/25 05:11:11;;;;;;;3.15;2.70;;;5.00;63.20;;;;;;5117243;28;20386;-80
2023/12/25 05:13:37;;;;;;;3.30;2.72;;;5.00;62.60;;;;;;5119411;27;20103;-83
2023/12/25 05:16:03;;;;;;;3.05;2.47;;;5.00;62.70;;;;;;5119948;27;20019;-81
2023/12/25 05:18:29;;;;;;;3.10;2.72;;;5.00;62.70;;;;;;5128231;27;20027;-79
2023/12/25 05:20:54;;;;;;;2.50;2.30;;;5.00;62.80;;;;;;5121111;27;20503;-83
2023/12/25 05:23:20;;;;;;;3.67;2.65;;;5.00;62.80;;;;;;5100250;27;20126;-80
2023/12/25 05:25:46;;;;;;;4.03;3.35;;;5.00;62.80;;;;;;5116098;27;20058;-82
2023/12/25 05:28:12;;;;;;;3.00;2.67;;;5.00;62.80;;;;;;5133460;27;20425;-81
2023/12/25 05:30:38;;;;;;;3.60;2.70;;;5.00;62.90;;;;;;5093781;28;20119;-81
2023/12/25 05:33:04;;;;;;;2.70;2.50;;;5.00;63.00;;;;;;5114626;28;20035;-77
2023/12/25 05:35:29;;;;;;;2.70;2.50;;;5.00;63.00;;;;;;5127125;27;20177;-78
2023/12/25 05:37:55;;;;;;;3.33;2.72;;;5.00;63.00;;;;;;5114969;28;20505;-81
2023/12/25 05:40:22;;;;;;;2.85;2.65;;;5.00;63.00;;;;;;5114283;28;20036;-79
2023/12/25 05:42:48;;;;;;;2.88;2.60;;;5.00;63.10;;;;;;5122303;27;20051;-81
2023/12/25 05:45:14;;;;;;;3.20;2.88;;;5.00;63.10;;;;;;5117715;27;20046;-82
2023/12/25 05:47:40;;;;;;;3.15;2.85;;;5.00;63.20;;;;;;5129813;27;20481;-77
2023/12/25 05:50:08;;;;;;;2.70;2.50;;;5.00;63.20;;;;;;5096446;28;20020;-78
2023/12/25 05:52:34;;;;;;;2.75;2.50;;;5.00;63.30;;;;;;5103167;27;20477;-78
2023/12/25 05:55:00;;;;;;;3.25;2.90;;;5.00;63.30;;;;;;5134638;27;20028;-77
2023/12/25 05:57:28;;;;;;;2.60;2.40;;;4.90;63.30;;;;;;5131183;27;20419;-86
2023/12/25 05:59:54;;;;;;;2.80;2.60;;;5.00;63.30;;;;;;5112663;27;20054;-76
2023/12/25 06:02:20;;;;;;;3.03;2.72;;;4.90;63.30;;;;;;5122265;27;20031;-83
2023/12/25 06:04:46;;;;;;;3.05;2.75;;;5.00;63.40;;;;;;5110134;27;20084;-82
2023/12/25 06:07:13;;;;;;;2.38;2.22;;;4.90;63.30;;;;;;5108459;27;20040;-83
2023/12/25 06:09:39;;;;;;;2.88;2.67;;;5.00;63.40;;;;;;5129611;27;20088;-80
2023/12/25 06:12:05;;;;;;;2.67;2.47;;;5.00;63.50;;;;;;5098485;27;20047;-81
2023/12/25 06:14:30;;;;;;;4.70;3.13;;;5.00;63.60;;;;;;5114127;28;20015;-82
2023/12/25 06:16:56;;;;;;;2.53;2.33;;;5.00;63.60;;;;;;5111665;28;20376;-80
2023/12/25 06:19:23;;;;;;;2.88;2.67;;;5.00;63.60;;;;;;5114002;28;20054;-80
2023/12/25 06:21:49;;;;;;;2.92;2.60;;;5.00;63.60;;;;;;5112632;28;20424;-80
2023/12/25 06:24:15;;;;;;;3.40;2.47;;;5.00;63.70;;;;;;5114392;28;20032;-79
2023/12/25 06:26:41;;;;;;;2.63;2.42;;;5.00;63.70;;;;;;5119213;27;20476;-81
2023/12/25 06:29:07;;;;;;;2.55;2.35;;;5.00;63.80;;;;;;5134139;27;20058;-82
2023/12/25 06:31:32;;;;;;;2.80;2.47;;;5.00;63.90;;;;;;5117220;27;20042;-80
2023/12/25 06:33:58;;;;;;;2.60;2.40;;;5.00;63.90;;;;;;5132551;27;20093;-82
2023/12/25 06:36:24;;;;;;;2.58;2.38;;;5.00;63.90;;;;;;5119526;27;20050;-81
2023/12/25 06:38:50;;;;;;;3.20;2.50;;;5.10;64.00;;;;;;5137637;27;20488;-81
2023/12/25 06:41:15;;;;;;;2.70;2.50;;;5.10;63.90;;;;;;5141062;27;20050;-82
2023/12/25 06:43:41;;;;;;;2.70;2.30;;;5.10;64.00;;;;;;5118224;27;20043;-82
2023/12/25 06:46:07;;;;;;;2.72;2.42;;;5.10;64.00;;;;;;5130315;27;20051;-85
2023/12/25 06:48:33;;;;;;;2.38;2.25;;;5.10;64.00;;;;;;5133015;27;20465;-82
2023/12/25 06:50:58;;;;;;;3.30;2.85;;;5.10;64.10;;;;;;5099959;28;20399;-83
2023/12/25 06:53:24;;;;;;;3.65;3.08;;;5.10;64.10;;;;;;5106934;28;20495;-82
2023/12/25 06:55:50;;;;;;;3.20;2.75;;;5.10;64.20;;;;;;5117980;27;20038;-84
2023/12/25 06:58:16;;;;;;;3.75;2.88;;;5.10;64.20;;;;;;5095552;28;20370;-83
2023/12/25 07:00:41;;;;;;;3.58;2.70;;;5.10;64.30;;;;;;5116131;27;20028;-84
2023/12/25 07:03:07;;;;;;;3.28;2.97;;;5.20;64.30;;;;;;5113970;28;20064;-86
2023/12/25 07:05:33;;;;;;;2.90;2.45;;;5.20;64.40;;;;;;5114202;28;20020;-90
2023/12/25 07:07:59;;;;;;;3.15;2.70;;;5.20;64.40;;;;;;5114736;28;20024;-87
2023/12/25 07:10:27;;;;;;;3.40;2.75;;;5.20;64.50;;;;;;5097002;28;20072;-89
2023/12/25 07:12:53;;;;;;;3.30;2.80;;;5.20;64.40;;;;;;5117091;28;20063;-88
2023/12/25 07:15:18;;;;;;;2.90;2.60;;;5.20;64.60;;;;;;5120695;28;20077;-88
2023/12/25 07:17:44;;;;;;;2.90;2.60;;;5.20;64.60;;;;;;5113828;28;20028;-85
2023/12/25 07:20:10;;;;;;;3.72;2.80;;;5.20;64.60;;;;;;5118306;28;20089;-81
2023/12/25 07:22:36;;;;;;;2.70;2.50;;;5.20;65.30;;;;;;5118815;28;20035;-88
2023/12/25 07:25:05;;;;;;;2.60;2.40;;;5.20;64.80;;;;;;5114151;28;20031;-77
2023/12/25 07:27:32;;;;;;;2.85;2.60;;;5.30;64.90;;;;;;5115534;28;20019;-79
2023/12/25 07:29:58;;;;;;;3.58;2.83;;;5.30;64.90;;;;;;5103842;27;20102;-78
2023/12/25 07:32:24;;;;;;;3.10;2.80;;;5.30;64.90;;;;;;5128203;27;20417;-86
2023/12/25 07:34:51;;;;;;;2.88;2.55;;;5.30;64.90;;;;;;5106204;27;20481;-81
2023/12/25 07:37:16;;;;;;;2.88;2.60;;;5.30;65.00;;;;;;5136179;27;20030;-80
2023/12/25 07:40:14;;;;;;;3.20;2.90;;;5.30;65.10;;;;;;5105721;27;20027;-84
2023/12/25 07:42:40;;;;;;;2.97;2.67;;;5.30;65.10;;;;;;5088887;27;20074;-79
2023/12/25 07:45:06;;;;;;;3.50;3.00;;;5.30;65.20;;;;;;5137741;27;20418;-77
2023/12/25 07:47:32;;;;;;;3.58;3.20;;;5.30;65.20;;;;;;5118162;27;20027;-77
2023/12/25 07:49:58;;;;;;;3.42;2.78;;;5.30;65.20;;;;;;5098526;28;20461;-76
2023/12/25 07:52:24;;;;;;;4.53;3.60;;;5.30;65.30;;;;;;5114237;27;20027;-73
2023/12/25 07:54:50;;;;;;;3.58;3.20;;;5.40;66.10;;;;;;5130339;27;20030;-77
2023/12/25 07:57:16;;;;;;;3.63;3.33;;;5.40;66.50;;;;;;5125613;27;20031;-78
2023/12/25 07:59:42;;;;;;;2.90;2.60;;;5.50;66.50;;;;;;5095714;28;20048;-76
2023/12/25 08:02:08;;;;;;;3.40;3.10;;;5.50;66.50;;;;;;5095735;28;20043;-77
2023/12/25 08:04:34;;;;;;;3.42;3.00;;;5.60;66.50;;;;;;5098157;28;20035;-84
2023/12/25 08:06:59;;;;;;;3.55;3.00;;;5.60;66.40;;;;;;5107159;28;20073;-81
2023/12/25 08:09:25;;;;;;;2.90;2.60;;;5.60;67.00;;;;;;5096407;28;20032;-77
2023/12/25 08:11:51;;;;;;;3.35;3.00;;;5.60;66.40;;;;;;5117946;28;20024;-83
2023/12/25 08:14:17;;;;;;;4.15;3.05;;;5.60;66.40;;;;;;5114658;27;20039;-75
2023/12/25 08:16:42;;;;;;;3.50;3.15;;;5.70;66.50;;;;;;5102884;28;20039;-76
2023/12/25 08:19:08;;;;;;;4.32;3.22;;;5.70;66.40;;;;;;5116671;28;20081;-72
2023/12/25 08:21:34;;;;;;;3.30;3.00;;;5.70;66.50;;;;;;5095751;28;20043;-78
2023/12/25 08:24:00;;;;;;;3.42;3.13;;;5.70;66.50;;;;;;5097655;28;20047;-79
2023/12/25 08:26:25;;;;;;;3.22;2.92;;;5.70;66.80;;;;;;5100606;28;20063;-77
2023/12/25 08:28:52;;;;;;;3.03;2.70;;;5.80;66.80;;;;;;5117698;28;20059;-77
2023/12/25 08:31:18;;;;;;;3.08;2.75;;;5.80;66.80;;;;;;5099701;28;20035;-77
2023/12/25 08:33:44;;;;;;;3.50;3.13;;;5.80;66.70;;;;;;5100314;28;20036;-79
2023/12/25 08:36:09;;;;;;;3.80;3.03;;;5.90;66.80;;;;;;5095880;28;20489;-77
2023/12/25 08:38:38;;;;;;;3.00;2.70;;;5.90;66.80;;;;;;5100842;28;20084;-79
2023/12/25 08:41:04;;;;;;;3.00;2.80;;;5.90;66.70;;;;;;5094145;28;20108;-77
2023/12/25 08:43:33;;;;;;;3.05;2.75;;;6.00;66.70;;;;;;5096320;28;20028;-76
2023/12/25 08:45:59;;;;;;;3.13;2.83;;;5.90;66.70;;;;;;5095732;28;20028;-77
2023/12/25 08:48:25;;;;;;;3.33;2.65;;;5.90;66.80;;;;;;5094807;28;20389;-79
2023/12/25 08:50:50;;;;;;;3.08;2.72;;;5.90;66.80;;;;;;5108868;28;20492;-76
2023/12/25 08:53:16;;;;;;;3.00;2.70;;;5.90;66.80;;;;;;5116365;28;20558;-76
2023/12/25 08:55:42;;;;;;;3.40;2.83;;;5.90;66.90;;;;;;5116306;28;20035;-77
2023/12/25 08:58:07;;;;;;;3.25;2.90;;;5.90;66.90;;;;;;5114808;28;20054;-76
2023/12/25 09:00:33;;;;;;;3.15;2.85;;;6.00;67.00;;;;;;5105599;28;20055;-80
2023/12/25 09:02:59;;;;;;;3.22;2.92;;;6.00;67.10;;;;;;5094579;28;20032;-77
2023/12/25 09:05:25;;;;;;;3.53;3.20;;;6.00;67.00;;;;;;5094967;28;20451;-77
2023/12/25 09:07:50;;;;;;;3.22;2.80;;;6.10;67.10;;;;;;5095461;28;20024;-76
2023/12/25 09:10:16;;;;;;;3.45;3.00;;;6.20;67.10;;;;;;5074231;28;20024;-76
2023/12/25 09:12:42;;;;;;;3.45;3.00;;;6.20;67.10;;;;;;5074724;28;20033;-76
2023/12/25 09:15:08;;;;;;;3.35;2.78;;;6.20;67.10;;;;;;5075474;28;20447;-78
2023/12/25 09:17:34;;;;;;;3.10;2.80;;;6.20;66.90;;;;;;5090869;28;20035;-75
2023/12/25 09:20:00;;;;;;;3.20;2.90;;;6.20;66.90;;;;;;5112344;28;20114;-79
2023/12/25 09:22:27;;;;;;;3.28;2.80;;;6.20;67.00;;;;;;5114402;28;20427;-76
2023/12/25 09:24:53;;;;;;;3.03;2.60;;;6.30;67.10;;;;;;5115752;28;20035;-75
2023/12/25 09:27:19;;;;;;;3.10;2.80;;;6.30;67.10;;;;;;5114536;28;20378;-77
2023/12/25 09:29:44;;;;;;;3.17;2.88;;;6.30;67.10;;;;;;5112736;28;20491;-77
2023/12/25 09:32:10;;;;;;;2.63;2.42;;;6.30;67.20;;;;;;5115643;28;20103;-76
2023/12/25 09:34:36;;;;;;;2.88;2.67;;;6.40;67.20;;;;;;5115404;28;20028;-77
2023/12/25 09:37:02;;;;;;;3.10;2.80;;;6.40;67.10;;;;;;5115408;28;20068;-76
2023/12/25 09:39:27;;;;;;;2.60;2.40;;;6.50;67.00;;;;;;5101280;28;20476;-76
2023/12/25 09:41:54;;;;;;;3.03;2.78;;;6.50;67.10;;;;;;5095222;28;20039;-77
2023/12/25 09:44:20;;;;;;;3.22;2.60;;;6.50;67.10;;;;;;5094808;28;20097;-78
2023/12/25 09:46:47;;;;;;;2.90;2.60;;;6.50;67.10;;;;;;5093380;28;20055;-76
2023/12/25 09:49:14;;;;;;;2.60;2.40;;;6.50;67.10;;;;;;5102883;28;20423;-78
2023/12/25 09:51:42;;;;;;;2.85;2.58;;;6.50;67.10;;;;;;5111436;28;20107;-77
2023/12/25 09:54:08;;;;;;;2.70;2.50;;;6.50;67.10;;;;;;5094748;28;20024;-77
2023/12/25 09:56:36;;;;;;;2.70;2.50;;;6.50;67.10;;;;;;5094699;28;20381;-77
2023/12/25 09:59:03;;;;;;;2.42;2.22;;;6.60;67.20;;;;;;5077868;28;20039;-77
2023/12/25 10:01:31;;;;;;;3.20;2.60;;;6.60;67.20;;;;;;5094700;28;20105;-76
2023/12/25 10:03:57;;;;;;;3.10;2.70;;;6.60;67.20;;;;;;5093565;28;20032;-76
2023/12/25 10:06:23;;;;;;;2.83;2.63;;;6.60;67.20;;;;;;5094266;28;20026;-77
2023/12/25 10:08:49;;;;;;;3.15;2.80;;;6.60;67.20;;;;;;5096574;28;20024;-75
2023/12/25 10:11:15;;;;;;;3.97;3.00;;;6.70;67.30;;;;;;5095214;28;20028;-74
2023/12/25 10:13:41;;;;;;;3.10;2.58;;;6.70;67.30;;;;;;5093813;28;20120;-76
2023/12/25 10:16:07;;;;;;;2.60;2.30;;;6.70;67.20;;;;;;5094621;28;20481;-76
2023/12/25 10:18:33;;;;;;;2.97;2.67;;;6.70;67.20;;;;;;5111303;28;20039;-75
2023/12/25 10:21:01;;;;;;;2.88;2.60;;;6.70;67.30;;;;;;5114483;28;20016;-75
2023/12/25 10:23:34;;;;;;;2.75;2.55;;;6.70;67.30;;;;;;5114494;28;20024;-76
2023/12/25 10:26:03;;;;;;;2.80;2.60;;;6.80;67.40;;;;;;5114757;28;20020;-75
2023/12/25 10:28:30;;;;;;;2.85;2.63;;;6.80;67.30;;;;;;5112940;28;20023;-76
2023/12/25 10:31:07;;;;;;;3.00;2.70;;;6.80;67.40;;;;;;5114116;28;20156;-76
2023/12/25 10:33:35;;;;;;;2.55;2.35;;;6.80;67.40;;;;;;5114922;28;20031;-76
2023/12/25 10:36:10;;;;;;;3.25;2.67;;;6.90;67.50;;;;;;5113167;28;20020;-75
2023/12/25 10:38:42;;;;;;;2.83;2.55;;;6.90;67.50;;;;;;5094947;28;20039;-77
2023/12/25 10:41:21;;;;;;;3.67;2.83;;;6.90;67.60;;;;;;5092385;28;20028;-74
2023/12/25 10:43:52;;;;;;;4.03;2.67;;;6.90;67.70;;;;;;5092730;28;20053;-74
2023/12/25 10:46:21;;;;;;;3.58;2.60;;;6.90;67.80;;;;;;5094114;28;20397;-74
2023/12/25 10:48:55;;;;;;;2.75;2.55;;;6.90;67.90;;;;;;5095109;28;20023;-76
2023/12/25 10:51:34;;;;;;;3.15;2.83;;;6.90;68.00;;;;;;5098980;28;20038;-75
2023/12/25 10:54:02;;;;;;;2.70;2.50;;;6.90;68.70;;;;;;5114258;28;20035;-75
2023/12/25 10:56:31;;;;;;;3.42;2.65;;;6.90;68.30;;;;;;5113027;28;20023;-72
2023/12/25 10:59:07;;;;;;;3.65;2.85;;;7.00;68.40;;;;;;5114033;27;20070;-77
2023/12/25 11:01:34;;;;;;;2.58;2.38;;;7.00;68.50;;;;;;5074690;28;20040;-74
2023/12/25 11:04:01;;;;;;;2.95;2.60;;;7.00;68.60;;;;;;5096362;28;20460;-71
2023/12/25 11:06:28;;;;;;;2.70;2.50;;;7.00;68.60;;;;;;5081244;27;20516;-75
2023/12/25 11:08:54;;;;;;;2.85;2.55;;;7.00;68.80;;;;;;5138999;27;20027;-78
2023/12/25 11:11:23;;;;;;;2.65;2.45;;;7.00;68.90;;;;;;5122320;27;20034;-77
2023/12/25 11:13:49;;;;;;;2.53;2.33;;;7.00;69.00;;;;;;5118713;27;20111;-80
2023/12/25 11:16:15;;;;;;;3.13;2.83;;;7.00;69.10;;;;;;5117880;28;20119;-74
2023/12/25 11:18:41;;;;;;;2.85;2.60;;;7.00;69.20;;;;;;5131763;27;20136;-75
2023/12/25 11:21:09;;;;;;;2.70;2.50;;;7.00;69.40;;;;;;5108747;28;20541;-79
2023/12/25 11:23:36;;;;;;;2.72;2.53;;;7.00;69.40;;;;;;5116689;28;20370;-77
2023/12/25 11:26:08;;;;;;;3.13;2.50;;;7.00;69.50;;;;;;5080899;28;20497;-76
2023/12/25 11:28:41;;;;;;;2.60;2.40;;;7.00;69.60;;;;;;5099288;28;20024;-75
2023/12/25 11:31:13;;;;;;;2.63;2.40;;;7.00;69.70;;;;;;5123972;27;20015;-72
2023/12/25 11:33:48;;;;;;;2.60;2.38;;;7.00;69.60;;;;;;5122405;27;20037;-72
2023/12/25 11:36:15;;;;;;;2.60;2.40;;;7.00;69.70;;;;;;5121183;27;20019;-69
2023/12/25 11:38:48;;;;;;;2.72;2.50;;;7.10;69.80;;;;;;5122714;27;20125;-68
2023/12/25 11:41:19;;;;;;;2.40;2.20;;;7.10;69.90;;;;;;5138971;27;20026;-68
2023/12/25 11:43:47;;;;;;;2.58;2.38;;;7.10;69.90;;;;;;5139596;27;20024;-69
2023/12/25 11:46:15;;;;;;;2.80;2.50;;;7.10;69.90;;;;;;5141408;27;20027;-71
2023/12/25 11:48:44;;;;;;;3.42;2.72;;;7.10;70.00;;;;;;5106295;28;20034;-70
2023/12/25 11:51:26;;;;;;;2.30;2.20;;;7.10;70.00;;;;;;5106645;27;20031;-71
2023/12/25 11:53:56;;;;;;;2.83;2.55;;;7.20;70.20;;;;;;5114148;27;20027;-73
2023/12/25 11:56:22;;;;;;;2.58;2.38;;;7.20;70.20;;;;;;5115160;27;20069;-74
2023/12/25 11:58:48;;;;;;;2.40;2.20;;;7.20;70.30;;;;;;5135295;27;20075;-74
2023/12/25 12:01:17;;;;;;;2.50;2.30;;;7.30;70.40;;;;;;5117031;27;20027;-71
2023/12/25 12:03:48;;;;;;;2.40;2.20;;;7.30;70.40;;;;;;5139304;27;20031;-71
2023/12/25 12:06:15;;;;;;;2.50;2.30;;;7.40;70.40;;;;;;5136019;27;20028;-70
2023/12/25 12:08:42;;;;;;;2.72;2.47;;;7.40;70.30;;;;;;5110980;27;20052;-73
2023/12/25 12:11:14;;;;;;;2.58;2.38;;;7.40;70.20;;;;;;5122290;27;20099;-72
2023/12/25 12:13:43;;;;;;;3.20;2.50;;;7.40;70.30;;;;;;5133274;27;20031;-69
2023/12/25 12:16:10;;;;;;;2.85;2.63;;;7.50;70.40;;;;;;5121012;27;20018;-72
2023/12/25 12:18:36;;;;;;;2.63;2.40;;;7.50;70.40;;;;;;5109722;27;20023;-72
2023/12/25 12:21:02;;;;;;;2.90;2.60;;;7.50;70.50;;;;;;5119033;27;20031;-72
2023/12/25 12:23:31;;;;;;;3.08;2.60;;;7.50;70.50;;;;;;5118817;27;20015;-71
2023/12/25 12:25:58;;;;;;;2.90;2.60;;;7.50;70.60;;;;;;5117301;28;20111;-74
2023/12/25 12:28:25;;;;;;;3.38;2.45;;;7.50;70.60;;;;;;5116625;28;20034;-73
2023/12/25 12:30:51;;;;;;;2.58;2.38;;;7.50;70.70;;;;;;5098432;28;20058;-73
2023/12/25 12:33:18;;;;;;;2.60;2.40;;;7.50;70.60;;;;;;5098467;28;20071;-75
2023/12/25 12:35:48;;;;;;;2.50;2.30;;;7.50;70.80;;;;;;5098482;28;20028;-75
2023/12/25 12:38:14;;;;;;;2.55;2.35;;;7.50;70.80;;;;;;5119117;27;20027;-75
2023/12/25 12:40:40;;;;;;;2.85;2.47;;;7.50;70.80;;;;;;5137179;27;20520;-76
2023/12/25 12:43:06;;;;;;;2.60;2.40;;;7.50;70.90;;;;;;5125107;27;20127;-75
2023/12/25 12:45:32;;;;;;;2.78;2.55;;;7.60;71.00;;;;;;5118891;27;20059;-75
2023/12/25 12:47:59;;;;;;;2.75;2.28;;;7.60;71.00;;;;;;5121700;27;20034;-75
2023/12/25 12:50:25;;;;;;;2.70;2.50;;;7.60;71.00;;;;;;5118606;27;20027;-78
2023/12/25 12:52:51;;;;;;;2.60;2.22;;;7.60;71.00;;;;;;5121861;27;20111;-74
2023/12/25 12:55:17;;;;;;;2.30;2.10;;;7.70;71.10;;;;;;5131147;27;20184;-72